Terminal Aerodrome Forecast
Issued by NWS

Home | Current Version | Previous Version | Text Only | Print | Product List | Glossary On
Versions: 1 2 3 4 5 6 7 8 9 10 11 12 13 14 15 16 17 18 19 20 21 22 23 24
536
FTUS45 KTFX 202109 AAB
TAFCTB
TAF AMD
KCTB 202109Z 2021/2118 04010KT P6SM VCSH SCT015 OVC025
      TEMPO 2022/2102 2SM -SN BR OVC012
     FM210200 02012KT 3SM -SN BR BKN010 OVC080
     FM210500 02011KT 6SM BR VCSH BKN020 OVC080
      TEMPO 2105/2109 4SM -FZDZSN
     FM211100 VRB05KT P6SM BKN030 BKN130
     FM211500 16009KT P6SM BKN070 BKN100=

USA.gov is the U.S. government's official web portal to all federal, state and local government web resources and services.